メインページ
METAR-TAF:

METAR-TAF

空港 :

Grande Prairie, アルバータ州, カナダ

緯度: 55-11N, 経度: 118-53W, 海抜: 666m

現時点の気象観測

当レポートは27分前の06:00(UTC)に作成
北西の風 4kt、西/北西からの間で変化する
気温 -9°C
湿度 85%
気圧 1029 hPa
視程: 6.4km
高度1200ftの雲はほとんどない
高度1800ftの曇り
小雪

METAR: CYQU 160600Z 32004KT 300V010 4SM -SN FEW012 OVC018 M09/M11 A3038 RMK SC2SC6 SLP337

時間: 23:27 (06:27 UTC)

予報

当レポートは1時間18分前の05:09(UTC)に作成
予報は16日の 05時(UTC)から 16日の 13時(UTC)まで有効
北西の風 5kt
視程: 1.6km
高度900ftの
小雪
16日の 05時(UTC)から 16日の 07時(UTC)まで一時的に
視程: 4.8km
高度1200ftの曇り
小雪
16日の 0700時(UTC)から
の風 5kt
視程: 10km
高度3000ftの千切れ雲あり
16日の 07時(UTC)から 16日の 13時(UTC)まで一時的に
視程: 6.4km
高度2000ftの曇り
小雪

TAF: CYQU 160509Z 1605/1613 31005KT 1SM -SN VV009 TEMPO 1605/1607 3SM -SN OVC012 FM160700 36005KT P6SM BKN030 TEMPO 1607/1613 4SM -SN OVC020 RMK NXT FCST BY 160700Z

4,000以上の空港の気象観測と天気予報(METAR報とTAF報)

利用可能な観測所は地図上に黄色い丸と赤い丸で示す。

丸の上にカーソルを重ねると観測所名を参照できる。

次にクリックすると気象観測と天気予報を参照できる。

マップの切り替え:黒色「×」印の緑ボタンをクリックして拡大、「-」印の緑ボタンをクリックして縮小、緑色の三角印をクリックして隣りの地図に切り替え


METAR-TAF: